createdAt,value
2023-03-14T00:00:15.002Z,96.20
2023-03-14T00:02:20.678Z,96.20
2023-03-14T00:04:25.614Z,96.30
2023-03-14T00:06:30.866Z,96.30
2023-03-14T00:08:38.932Z,96.20
2023-03-14T00:10:44.570Z,96.00
2023-03-14T00:12:49.765Z,95.30
2023-03-14T00:14:54.996Z,95.10
2023-03-14T00:17:00.226Z,95.30
2023-03-14T00:19:05.606Z,95.50
2023-03-14T00:21:14.142Z,95.40
2023-03-14T00:23:19.027Z,94.90
2023-03-14T00:25:26.533Z,94.90
2023-03-14T00:27:31.935Z,95.10
2023-03-14T00:29:36.818Z,95.20
2023-03-14T00:31:42.821Z,95.10
2023-03-14T00:33:48.686Z,95.00
2023-03-14T00:35:59.106Z,95.30
2023-03-14T00:38:04.641Z,95.20
2023-03-14T00:40:12.153Z,95.40
2023-03-14T00:42:20.028Z,95.60
2023-03-14T00:44:24.957Z,95.10
2023-03-14T00:46:30.900Z,95.40
2023-03-14T00:48:36.314Z,94.60
2023-03-14T00:50:41.476Z,94.20
2023-03-14T00:52:47.761Z,94.00
2023-03-14T00:54:52.668Z,92.30
2023-03-14T00:56:58.022Z,93.20
2023-03-14T00:59:05.584Z,93.50
2023-03-14T01:01:12.657Z,93.30
2023-03-14T01:03:18.914Z,92.50
2023-03-14T01:05:25.103Z,93.40
2023-03-14T01:07:30.725Z,93.60
2023-03-14T01:09:36.810Z,93.40
2023-03-14T01:11:43.534Z,92.80
2023-03-14T01:13:49.457Z,92.10
2023-03-14T01:15:57.429Z,93.60
2023-03-14T01:18:02.627Z,93.60
2023-03-14T01:20:10.117Z,93.20
2023-03-14T01:22:15.915Z,93.00
2023-03-14T01:24:21.529Z,93.10
2023-03-14T01:26:29.768Z,93.30
2023-03-14T01:28:35.426Z,93.60
2023-03-14T01:30:40.333Z,92.60
2023-03-14T01:32:48.414Z,92.20
2023-03-14T01:34:53.685Z,92.40
2023-03-14T01:36:59.239Z,92.40
2023-03-14T01:39:05.114Z,92.40
2023-03-14T01:41:15.625Z,92.40
2023-03-14T01:43:25.616Z,92.00
2023-03-14T01:46:24.697Z,92.10
2023-03-14T01:48:39.541Z,93.50
2023-03-14T01:50:44.709Z,92.00
2023-03-14T01:52:54.416Z,92.00
2023-03-14T01:55:04.466Z,92.80
2023-03-14T01:57:16.862Z,91.40
2023-03-14T01:59:22.985Z,92.20
2023-03-14T02:01:30.017Z,91.80
2023-03-14T02:03:48.657Z,91.70
2023-03-14T02:05:54.915Z,91.10
2023-03-14T02:08:02.478Z,92.40
2023-03-14T02:10:15.455Z,92.50
2023-03-14T02:12:24.093Z,92.40
2023-03-14T02:14:49.190Z,92.20
2023-03-14T02:17:14.457Z,93.00
2023-03-14T02:20:02.838Z,92.10
2023-03-14T02:22:17.406Z,91.60
2023-03-14T02:24:39.598Z,92.50
2023-03-14T02:27:08.940Z,92.30
2023-03-14T02:29:16.809Z,92.10
2023-03-14T02:31:22.130Z,90.90
2023-03-14T02:33:28.198Z,91.50
2023-03-14T02:35:39.012Z,91.20
2023-03-14T02:37:49.444Z,91.00
2023-03-14T02:39:54.768Z,90.50
2023-03-14T02:42:00.010Z,90.30
2023-03-14T02:44:07.931Z,90.40
2023-03-14T02:46:16.526Z,91.50
2023-03-14T02:48:25.281Z,91.10
2023-03-14T02:50:35.489Z,90.70
2023-03-14T02:52:40.722Z,90.20
2023-03-14T02:54:46.188Z,90.10
2023-03-14T02:56:51.809Z,90.80
2023-03-14T02:58:58.751Z,90.50
2023-03-14T03:01:38.690Z,90.80
2023-03-14T03:03:44.054Z,89.90
2023-03-14T03:05:54.073Z,90.40
2023-03-14T03:07:59.364Z,90.30
2023-03-14T03:10:04.551Z,90.30
2023-03-14T03:12:10.231Z,89.50
2023-03-14T03:14:15.161Z,89.40
2023-03-14T03:16:20.162Z,89.50
2023-03-14T03:18:27.697Z,89.20
2023-03-14T03:20:32.677Z,89.20
2023-03-14T03:22:37.716Z,89.40
2023-03-14T03:24:42.646Z,88.80
2023-03-14T03:26:48.088Z,89.10
2023-03-14T03:28:55.438Z,90.10
2023-03-14T03:31:02.661Z,90.40
2023-03-14T03:33:07.728Z,90.50
2023-03-14T03:35:16.349Z,90.70
2023-03-14T03:37:21.860Z,91.30
2023-03-14T03:39:26.919Z,91.50
2023-03-14T03:41:32.781Z,92.10
2023-03-14T03:43:38.010Z,92.00
2023-03-14T03:45:45.241Z,91.90
2023-03-14T03:47:50.643Z,91.00
2023-03-14T03:49:55.710Z,90.70
2023-03-14T03:52:04.195Z,90.80
2023-03-14T03:54:09.140Z,90.20
2023-03-14T03:56:14.769Z,90.70
2023-03-14T03:58:20.995Z,90.80
2023-03-14T04:00:26.338Z,90.10
2023-03-14T04:02:31.883Z,89.90
2023-03-14T04:04:37.162Z,89.30
2023-03-14T04:06:43.152Z,89.70
2023-03-14T04:08:50.752Z,89.70
2023-03-14T04:11:18.217Z,88.30
2023-03-14T04:13:32.245Z,89.10
2023-03-14T04:15:37.307Z,88.40
2023-03-14T04:17:49.632Z,89.20
2023-03-14T04:19:55.256Z,88.70
2023-03-14T04:22:07.919Z,89.00
2023-03-14T04:24:23.937Z,89.40
2023-03-14T04:26:30.153Z,89.50
2023-03-14T04:28:37.246Z,88.70
2023-03-14T04:30:43.587Z,88.90
2023-03-14T04:32:52.972Z,88.80
2023-03-14T04:34:59.625Z,88.50
2023-03-14T04:37:04.917Z,88.60
2023-03-14T04:39:16.077Z,88.70
2023-03-14T04:41:32.164Z,88.90
2023-03-14T04:43:38.278Z,89.00
2023-03-14T04:45:47.069Z,88.90
2023-03-14T04:47:53.479Z,88.90
2023-03-14T04:49:59.113Z,88.60
2023-03-14T04:52:05.048Z,87.90
2023-03-14T04:54:12.791Z,88.40
2023-03-14T04:56:17.756Z,88.40
2023-03-14T04:58:27.906Z,88.00
2023-03-14T05:00:35.415Z,87.80
2023-03-14T05:02:50.622Z,87.90
2023-03-14T05:05:10.995Z,88.80
2023-03-14T05:07:41.210Z,88.30
2023-03-14T05:09:56.043Z,88.00
2023-03-14T05:12:21.489Z,88.40
2023-03-14T05:14:36.666Z,88.30
2023-03-14T05:16:54.881Z,88.20
2023-03-14T05:19:07.427Z,88.30
2023-03-14T05:21:18.217Z,88.90
2023-03-14T05:23:30.702Z,88.70
2023-03-14T05:25:54.275Z,88.70
2023-03-14T05:28:13.095Z,88.60
2023-03-14T05:30:29.370Z,89.10
2023-03-14T05:33:00.453Z,89.20
2023-03-14T05:35:21.116Z,90.00
2023-03-14T05:37:38.828Z,90.70
2023-03-14T05:40:05.723Z,89.80
2023-03-14T05:42:17.621Z,89.90
2023-03-14T05:44:41.203Z,89.70
2023-03-14T05:47:09.134Z,90.10
2023-03-14T05:49:14.034Z,90.20
2023-03-14T05:51:30.369Z,89.50
2023-03-14T05:53:42.682Z,90.00
2023-03-14T05:56:07.276Z,89.70
2023-03-14T05:58:26.181Z,89.70
2023-03-14T06:00:46.854Z,89.40
2023-03-14T06:03:14.729Z,89.20
2023-03-14T06:05:23.676Z,89.60
2023-03-14T06:07:34.829Z,88.70
2023-03-14T06:09:42.999Z,88.20
2023-03-14T06:11:48.268Z,87.50
2023-03-14T06:13:54.263Z,88.40
2023-03-14T06:15:59.727Z,87.50
2023-03-14T06:18:05.143Z,88.50
2023-03-14T06:20:15.689Z,87.90
2023-03-14T06:22:21.167Z,87.80
2023-03-14T06:24:26.381Z,87.90
2023-03-14T06:26:31.698Z,88.20
2023-03-14T06:28:36.687Z,87.80
2023-03-14T06:30:42.907Z,87.90
2023-03-14T06:32:49.900Z,88.30
2023-03-14T06:34:56.262Z,88.70
2023-03-14T06:37:03.876Z,87.90
2023-03-14T06:39:09.064Z,88.30
2023-03-14T06:41:17.932Z,88.00
2023-03-14T06:43:25.525Z,87.40
2023-03-14T06:45:31.188Z,87.30
2023-03-14T06:47:39.221Z,87.10
2023-03-14T06:49:44.383Z,87.60
2023-03-14T06:51:50.037Z,88.40
2023-03-14T06:53:57.552Z,87.70
2023-03-14T06:56:05.662Z,87.60
2023-03-14T06:58:12.270Z,87.50
2023-03-14T07:00:22.557Z,87.80
2023-03-14T07:02:42.182Z,88.60
2023-03-14T07:04:55.707Z,88.50
2023-03-14T07:07:01.306Z,89.10
2023-03-14T07:09:09.090Z,89.80
2023-03-14T07:11:18.009Z,90.30
2023-03-14T07:13:23.101Z,90.50
2023-03-14T07:15:36.792Z,90.40
2023-03-14T07:17:46.554Z,91.00
2023-03-14T07:19:51.515Z,90.60
2023-03-14T07:21:58.389Z,91.30
2023-03-14T07:24:08.785Z,91.80
2023-03-14T07:26:14.202Z,92.00
2023-03-14T07:28:24.710Z,92.10
2023-03-14T07:30:36.547Z,92.20
2023-03-14T07:32:48.827Z,92.10
2023-03-14T07:34:53.922Z,91.90
2023-03-14T07:36:58.913Z,92.20
2023-03-14T07:39:05.203Z,92.50
2023-03-14T07:41:30.411Z,92.50
2023-03-14T07:43:54.600Z,92.70
2023-03-14T07:46:00.434Z,93.10
2023-03-14T07:48:05.625Z,92.80
2023-03-14T07:50:13.156Z,92.80
2023-03-14T07:52:18.535Z,93.00
2023-03-14T07:54:24.698Z,92.90
2023-03-14T07:56:32.467Z,93.30
2023-03-14T07:58:37.528Z,93.70
2023-03-14T08:00:42.762Z,93.00
2023-03-14T08:02:48.207Z,93.00
2023-03-14T08:04:53.621Z,93.20
2023-03-14T08:06:59.030Z,92.40
2023-03-14T08:09:04.269Z,92.10
2023-03-14T08:11:11.862Z,92.70
2023-03-14T08:13:19.920Z,92.20
2023-03-14T08:15:25.191Z,92.50
2023-03-14T08:17:30.459Z,92.40
2023-03-14T08:19:35.361Z,92.80
2023-03-14T08:21:40.367Z,92.70
2023-03-14T08:23:45.771Z,93.10
2023-03-14T08:25:53.704Z,92.50
2023-03-14T08:27:59.126Z,92.80
2023-03-14T08:30:07.646Z,93.00
2023-03-14T08:32:13.190Z,93.00
2023-03-14T08:34:19.088Z,93.40
2023-03-14T08:36:24.429Z,93.40
2023-03-14T08:38:30.309Z,93.60
2023-03-14T08:40:35.220Z,93.70
2023-03-14T08:42:40.166Z,93.40
2023-03-14T08:44:45.419Z,93.60
2023-03-14T08:46:53.288Z,93.00
2023-03-14T08:48:58.698Z,93.10
2023-03-14T08:51:09.707Z,93.40
2023-03-14T08:53:14.724Z,92.80
2023-03-14T08:55:19.906Z,93.30
2023-03-14T08:57:28.388Z,92.90
2023-03-14T08:59:33.914Z,93.30
2023-03-14T09:01:38.862Z,93.10
2023-03-14T09:03:47.408Z,93.40
2023-03-14T09:05:52.575Z,93.60
2023-03-14T09:07:57.743Z,93.80
2023-03-14T09:10:03.049Z,93.90
2023-03-14T09:12:09.086Z,93.80
2023-03-14T09:14:15.157Z,93.80
2023-03-14T09:16:20.181Z,93.70
2023-03-14T09:18:26.259Z,93.60
2023-03-14T09:20:34.072Z,93.50
2023-03-14T09:22:39.244Z,93.20
2023-03-14T09:24:44.693Z,93.60
2023-03-14T09:26:49.565Z,92.90
2023-03-14T09:28:55.953Z,93.50
2023-03-14T09:31:09.062Z,93.40
2023-03-14T09:33:14.373Z,93.70
2023-03-14T09:35:19.824Z,93.00
2023-03-14T09:37:27.464Z,93.30
2023-03-14T09:39:32.916Z,93.60
2023-03-14T09:41:41.642Z,93.70
2023-03-14T09:43:52.028Z,93.50
2023-03-14T09:45:57.576Z,93.80
2023-03-14T09:48:05.043Z,94.10
2023-03-14T09:50:15.616Z,92.90
2023-03-14T09:52:25.666Z,93.30
2023-03-14T09:54:42.743Z,94.10
2023-03-14T09:56:48.003Z,93.80
2023-03-14T09:58:57.621Z,94.10
2023-03-14T10:01:04.563Z,94.30
2023-03-14T10:03:28.949Z,93.90
2023-03-14T10:05:34.383Z,94.30
2023-03-14T10:07:39.312Z,94.50
2023-03-14T10:09:47.998Z,94.60
2023-03-14T10:11:53.053Z,94.40
2023-03-14T10:14:13.629Z,94.10
2023-03-14T10:16:19.107Z,93.80
2023-03-14T10:18:29.049Z,93.40
2023-03-14T10:20:37.548Z,92.80
2023-03-14T10:22:42.556Z,93.80
2023-03-14T10:24:57.940Z,93.80
2023-03-14T10:27:05.788Z,92.80
2023-03-14T10:29:17.199Z,93.00
2023-03-14T10:31:28.278Z,93.10
2023-03-14T10:33:35.926Z,93.00
2023-03-14T10:35:41.148Z,92.40
2023-03-14T10:37:55.484Z,92.40
2023-03-14T10:40:06.972Z,90.40
2023-03-14T10:42:23.144Z,91.20
2023-03-14T10:44:29.921Z,90.90
2023-03-14T10:46:37.094Z,89.60
2023-03-14T10:49:00.897Z,90.30
2023-03-14T10:51:12.551Z,89.40
2023-03-14T10:53:21.061Z,90.10
2023-03-14T10:55:29.490Z,90.70
2023-03-14T10:57:34.443Z,90.00
2023-03-14T10:59:42.932Z,90.20
2023-03-14T11:01:57.719Z,91.40
2023-03-14T11:04:11.409Z,90.60
2023-03-14T11:06:22.165Z,91.60
2023-03-14T11:08:35.727Z,89.80
2023-03-14T11:10:47.539Z,91.30
2023-03-14T11:13:08.193Z,90.30
2023-03-14T11:15:23.605Z,90.40
2023-03-14T11:17:38.489Z,91.10
2023-03-14T11:20:02.019Z,92.50
2023-03-14T11:22:17.950Z,92.40
2023-03-14T11:24:43.002Z,92.20
2023-03-14T11:26:59.289Z,91.80
2023-03-14T11:29:23.470Z,91.80
2023-03-14T11:31:31.670Z,91.00
2023-03-14T11:33:42.292Z,90.70
2023-03-14T11:35:54.543Z,91.80
2023-03-14T11:38:14.175Z,91.10
2023-03-14T11:40:24.068Z,91.60
2023-03-14T11:42:32.705Z,92.00
2023-03-14T11:44:42.245Z,91.70
2023-03-14T11:46:54.105Z,91.30
2023-03-14T11:49:07.913Z,91.80
2023-03-14T11:51:20.864Z,92.20
2023-03-14T11:53:40.405Z,91.80
2023-03-14T11:55:47.018Z,91.70
2023-03-14T11:57:55.786Z,91.60
2023-03-14T12:00:07.119Z,90.70
2023-03-14T12:02:26.470Z,92.20
2023-03-14T12:04:57.853Z,92.30
2023-03-14T12:07:11.739Z,91.80
2023-03-14T12:09:19.308Z,92.20
2023-03-14T12:11:35.949Z,91.60
2023-03-14T12:13:49.077Z,92.10
2023-03-14T12:16:00.089Z,91.40
2023-03-14T12:18:05.102Z,92.00
2023-03-14T12:20:22.399Z,92.20
2023-03-14T12:22:32.455Z,91.70
2023-03-14T12:24:42.061Z,92.10
2023-03-14T12:26:58.046Z,92.60
2023-03-14T12:29:20.769Z,92.90
2023-03-14T12:31:45.084Z,93.20
2023-03-14T12:34:04.503Z,94.10
2023-03-14T12:36:58.882Z,93.90
2023-03-14T12:39:17.790Z,93.50
2023-03-14T12:41:28.703Z,93.90
2023-03-14T12:43:38.184Z,93.70
2023-03-14T12:46:06.038Z,94.20
2023-03-14T12:48:21.302Z,93.80
2023-03-14T12:50:35.117Z,93.90
2023-03-14T12:52:58.030Z,94.80
2023-03-14T12:55:11.568Z,94.60
2023-03-14T12:57:32.120Z,94.60
2023-03-14T12:59:39.067Z,94.60
2023-03-14T13:02:00.016Z,95.20
2023-03-14T13:04:13.706Z,95.60
2023-03-14T13:06:55.530Z,96.60
2023-03-14T13:09:01.597Z,96.80
2023-03-14T13:11:11.995Z,97.20
2023-03-14T13:13:25.050Z,96.60
2023-03-14T13:15:37.873Z,96.80
2023-03-14T13:17:46.940Z,97.10
2023-03-14T13:19:56.598Z,96.70
2023-03-14T13:22:08.139Z,96.40
2023-03-14T13:24:27.069Z,96.00
2023-03-14T13:26:39.593Z,96.60
2023-03-14T13:28:45.600Z,95.50
2023-03-14T13:30:53.214Z,95.70
2023-03-14T13:33:00.733Z,95.50
2023-03-14T13:35:05.892Z,95.90
2023-03-14T13:37:20.426Z,95.60
2023-03-14T13:39:29.398Z,94.60
2023-03-14T13:41:34.727Z,95.20
2023-03-14T13:43:44.726Z,95.60
2023-03-14T13:45:59.606Z,95.20
2023-03-14T13:48:08.108Z,95.50
2023-03-14T13:50:20.524Z,95.60
2023-03-14T13:52:33.153Z,95.30
2023-03-14T13:54:38.050Z,96.10
2023-03-14T13:56:43.054Z,96.20
2023-03-14T13:58:48.017Z,96.50
2023-03-14T14:01:10.006Z,96.20
2023-03-14T14:03:17.612Z,96.10
2023-03-14T14:05:23.150Z,95.10
2023-03-14T14:07:29.086Z,95.00
2023-03-14T14:09:41.378Z,95.40
2023-03-14T14:12:07.581Z,94.50
2023-03-14T14:14:22.226Z,95.20
2023-03-14T14:16:31.038Z,96.20
2023-03-14T14:18:39.279Z,95.70
2023-03-14T14:20:48.710Z,94.80
2023-03-14T14:22:54.801Z,95.40
2023-03-14T14:25:00.087Z,96.00
2023-03-14T14:27:14.140Z,96.40
2023-03-14T14:29:30.316Z,96.40
2023-03-14T14:31:35.854Z,96.90
2023-03-14T14:33:48.936Z,96.10
2023-03-14T14:36:00.239Z,96.60
2023-03-14T14:38:06.529Z,96.40
2023-03-14T14:40:20.122Z,97.10
2023-03-14T14:42:29.865Z,96.80
2023-03-14T14:44:38.331Z,96.30
2023-03-14T14:46:43.860Z,96.30
2023-03-14T14:48:54.881Z,96.60
2023-03-14T14:51:03.643Z,96.00
2023-03-14T14:53:27.318Z,96.50
2023-03-14T14:55:37.106Z,96.80
2023-03-14T14:57:51.522Z,96.30
2023-03-14T14:59:59.980Z,96.70
2023-03-14T15:02:06.607Z,96.80
2023-03-14T15:04:18.443Z,96.70
2023-03-14T15:06:24.920Z,97.00
2023-03-14T15:08:31.043Z,97.10
2023-03-14T15:10:36.034Z,96.80
2023-03-14T15:12:41.122Z,96.50
2023-03-14T15:14:46.281Z,96.70
2023-03-14T15:16:51.231Z,96.50
2023-03-14T15:18:59.500Z,96.50
2023-03-14T15:21:07.439Z,97.00
2023-03-14T15:23:15.116Z,96.70
2023-03-14T15:25:43.428Z,96.60
2023-03-14T15:27:46.254Z,96.60
2023-03-14T15:29:51.565Z,96.80
2023-03-14T15:31:57.086Z,96.20
2023-03-14T15:34:02.043Z,95.40
2023-03-14T15:36:26.845Z,95.50
2023-03-14T15:38:32.362Z,95.20
2023-03-14T15:40:37.836Z,96.40
2023-03-14T15:42:43.335Z,95.60
2023-03-14T15:44:48.740Z,96.40
2023-03-14T15:46:53.908Z,95.90
2023-03-14T15:48:58.908Z,96.50
2023-03-14T15:51:03.846Z,96.70
2023-03-14T15:53:11.383Z,96.50
2023-03-14T15:55:16.657Z,96.60
2023-03-14T15:57:21.717Z,96.80
2023-03-14T15:59:27.778Z,97.10
2023-03-14T16:01:32.731Z,97.10
2023-03-14T16:03:37.778Z,97.10
2023-03-14T16:05:43.172Z,97.20
2023-03-14T16:07:48.444Z,96.70
2023-03-14T16:09:56.196Z,96.40
2023-03-14T16:12:01.124Z,96.90
2023-03-14T16:14:06.586Z,97.20
2023-03-14T16:16:13.312Z,96.80
2023-03-14T16:18:21.898Z,97.00
2023-03-14T16:20:31.282Z,96.10
2023-03-14T16:22:40.821Z,95.90
2023-03-14T16:24:45.745Z,95.40
2023-03-14T16:26:53.237Z,95.80
2023-03-14T16:28:58.173Z,96.30
2023-03-14T16:31:04.518Z,95.90
2023-03-14T16:33:12.401Z,95.80
2023-03-14T16:35:18.021Z,96.00
2023-03-14T16:37:23.387Z,96.30
2023-03-14T16:39:28.995Z,96.40
2023-03-14T16:41:35.292Z,96.70
2023-03-14T16:43:43.424Z,96.60
2023-03-14T16:45:48.334Z,96.50
2023-03-14T16:47:53.379Z,96.90
2023-03-14T16:49:58.352Z,97.00
2023-03-14T16:52:03.541Z,96.70
2023-03-14T16:54:08.647Z,96.70
2023-03-14T16:56:14.080Z,96.80
2023-03-14T16:58:21.251Z,97.00
2023-03-14T17:00:29.301Z,97.00
2023-03-14T17:02:34.221Z,97.10
2023-03-14T17:04:39.121Z,97.20
2023-03-14T17:06:45.450Z,97.20
2023-03-14T17:08:50.388Z,97.20
2023-03-14T17:10:55.276Z,97.20
2023-03-14T17:13:00.152Z,97.00
2023-03-14T17:15:05.083Z,97.20
2023-03-14T17:17:15.363Z,97.00
2023-03-14T17:19:20.316Z,97.10
2023-03-14T17:21:26.690Z,97.10
2023-03-14T17:23:34.195Z,97.20
2023-03-14T17:25:39.599Z,97.30
2023-03-14T17:27:46.126Z,97.30
2023-03-14T17:29:51.537Z,97.30
2023-03-14T17:31:56.431Z,96.40
2023-03-14T17:34:03.917Z,96.80
2023-03-14T17:36:11.290Z,97.00
2023-03-14T17:38:16.233Z,97.10
2023-03-14T17:40:22.014Z,97.30
2023-03-14T17:42:26.889Z,97.30
2023-03-14T17:44:32.176Z,97.50
2023-03-14T17:46:37.104Z,97.30
2023-03-14T17:48:42.427Z,97.40
2023-03-14T17:50:51.723Z,97.50
2023-03-14T17:52:58.021Z,97.40
2023-03-14T17:55:03.032Z,97.30
2023-03-14T17:57:08.474Z,97.50
2023-03-14T17:59:14.398Z,97.60
2023-03-14T18:01:22.029Z,97.60
2023-03-14T18:03:27.548Z,97.50
2023-03-14T18:05:32.443Z,97.60
2023-03-14T18:07:42.110Z,97.70
2023-03-14T18:09:47.200Z,97.70
2023-03-14T18:12:05.264Z,97.70
2023-03-14T18:14:16.376Z,97.70
2023-03-14T18:16:21.892Z,97.80
2023-03-14T18:18:27.575Z,97.80
2023-03-14T18:20:32.619Z,97.70
2023-03-14T18:22:40.777Z,97.70
2023-03-14T18:24:45.796Z,97.60
2023-03-14T18:26:51.232Z,97.70
2023-03-14T18:28:57.860Z,97.80
2023-03-14T18:31:09.575Z,97.80
2023-03-14T18:33:14.501Z,97.90
2023-03-14T18:35:19.940Z,97.70
2023-03-14T18:37:25.199Z,97.80
2023-03-14T18:39:33.165Z,97.70
2023-03-14T18:41:40.051Z,97.80
2023-03-14T18:43:46.249Z,97.80
2023-03-14T18:45:51.135Z,97.80
2023-03-14T18:47:56.017Z,97.80
2023-03-14T18:50:01.125Z,97.80
2023-03-14T18:52:07.499Z,97.80
2023-03-14T18:54:14.326Z,97.80
2023-03-14T18:56:22.278Z,97.80
2023-03-14T18:58:28.700Z,97.80
2023-03-14T19:00:34.585Z,97.80
2023-03-14T19:02:39.802Z,97.80
2023-03-14T19:04:45.501Z,97.90
2023-03-14T19:06:50.431Z,97.80
2023-03-14T19:08:55.329Z,97.90
2023-03-14T19:11:02.044Z,97.90
2023-03-14T19:13:09.693Z,97.90
2023-03-14T19:15:14.872Z,97.90
2023-03-14T19:17:19.762Z,97.80
2023-03-14T19:19:24.768Z,97.90
2023-03-14T19:21:32.374Z,97.80
2023-03-14T19:23:40.276Z,97.80
2023-03-14T19:25:45.231Z,97.90
2023-03-14T19:27:50.385Z,97.90
2023-03-14T19:29:57.991Z,98.00
2023-03-14T19:32:02.959Z,97.90
2023-03-14T19:34:07.917Z,97.90
2023-03-14T19:36:25.003Z,97.80
2023-03-14T19:38:29.895Z,97.80
2023-03-14T19:40:34.816Z,97.80
2023-03-14T19:42:39.700Z,97.80
2023-03-14T19:44:44.594Z,97.80
2023-03-14T19:46:52.177Z,97.70
2023-03-14T19:48:57.057Z,97.70
2023-03-14T19:51:03.661Z,97.80
2023-03-14T19:53:09.679Z,97.80
2023-03-14T19:55:15.377Z,97.70
2023-03-14T19:57:21.181Z,97.70
2023-03-14T19:59:26.185Z,97.70
2023-03-14T20:01:31.965Z,97.80
2023-03-14T20:03:39.957Z,97.80
2023-03-14T20:05:45.542Z,97.80
2023-03-14T20:07:51.926Z,97.80
2023-03-14T20:09:57.115Z,97.80
2023-03-14T20:12:02.421Z,97.70
2023-03-14T20:14:07.438Z,97.70
2023-03-14T20:16:13.461Z,97.90
2023-03-14T20:18:18.408Z,97.90
2023-03-14T20:20:27.386Z,97.80
2023-03-14T20:22:36.362Z,97.80
2023-03-14T20:24:41.249Z,97.90
2023-03-14T20:26:46.642Z,97.90
2023-03-14T20:28:51.540Z,97.90
2023-03-14T20:30:56.562Z,97.80
2023-03-14T20:33:04.775Z,97.90
2023-03-14T20:35:11.662Z,97.90
2023-03-14T20:37:19.144Z,97.90
2023-03-14T20:39:24.616Z,97.80
2023-03-14T20:41:30.282Z,97.80
2023-03-14T20:43:35.821Z,97.90
2023-03-14T20:45:40.721Z,97.80
2023-03-14T20:47:45.751Z,97.90
2023-03-14T20:49:50.679Z,97.90
2023-03-14T20:51:56.135Z,97.90
2023-03-14T20:54:03.680Z,97.80
2023-03-14T20:56:10.448Z,97.80
2023-03-14T20:58:15.971Z,97.90
2023-03-14T21:00:22.904Z,97.90
2023-03-14T21:02:27.900Z,97.90
2023-03-14T21:04:32.927Z,98.00
2023-03-14T21:06:37.917Z,97.90
2023-03-14T21:08:43.771Z,97.90
2023-03-14T21:10:54.362Z,97.90
2023-03-14T21:12:59.313Z,97.90
2023-03-14T21:15:04.228Z,97.90
2023-03-14T21:17:09.176Z,98.00
2023-03-14T21:19:14.710Z,98.10
2023-03-14T21:21:19.545Z,98.00
2023-03-14T21:23:26.447Z,98.00
2023-03-14T21:25:32.240Z,98.00
2023-03-14T21:27:42.258Z,98.00
2023-03-14T21:29:47.112Z,98.00
2023-03-14T21:31:52.913Z,98.00
2023-03-14T21:33:57.802Z,98.00
2023-03-14T21:36:02.733Z,98.00
2023-03-14T21:38:07.956Z,98.00
2023-03-14T21:40:15.590Z,98.00
2023-03-14T21:42:20.748Z,98.00
2023-03-14T21:44:28.298Z,98.00
2023-03-14T21:46:36.502Z,97.90
2023-03-14T21:48:42.175Z,98.00
2023-03-14T21:50:49.000Z,98.00
2023-03-14T21:52:57.193Z,97.90
2023-03-14T21:55:03.662Z,97.90
2023-03-14T21:57:09.517Z,98.00
2023-03-14T21:59:15.391Z,97.80
2023-03-14T22:01:22.852Z,97.70
2023-03-14T22:03:28.053Z,97.40
2023-03-14T22:05:32.964Z,97.30
2023-03-14T22:07:37.811Z,97.10
2023-03-14T22:09:44.692Z,97.10
2023-03-14T22:11:49.838Z,96.80
2023-03-14T22:13:55.316Z,96.80
2023-03-14T22:16:00.253Z,96.40
2023-03-14T22:18:08.173Z,96.70
2023-03-14T22:20:15.773Z,96.70
2023-03-14T22:22:20.665Z,96.70
2023-03-14T22:24:25.656Z,96.90
2023-03-14T22:26:30.610Z,96.90
2023-03-14T22:28:36.257Z,96.50
2023-03-14T22:30:41.213Z,96.50
2023-03-14T22:32:46.449Z,96.40
2023-03-14T22:34:53.887Z,96.50
2023-03-14T22:36:58.742Z,96.70
2023-03-14T22:39:03.621Z,96.60
2023-03-14T22:41:08.523Z,96.60
2023-03-14T22:43:14.227Z,96.40
2023-03-14T22:45:19.361Z,96.00
2023-03-14T22:47:24.372Z,96.00
2023-03-14T22:49:29.350Z,96.40
2023-03-14T22:51:36.897Z,96.60
2023-03-14T22:53:41.902Z,96.80
2023-03-14T22:55:47.004Z,96.60
2023-03-14T22:57:55.187Z,96.60
2023-03-14T23:00:00.027Z,96.80
2023-03-14T23:02:04.923Z,96.80
2023-03-14T23:04:09.810Z,96.70
2023-03-14T23:06:14.686Z,96.70
2023-03-14T23:08:22.722Z,96.90
2023-03-14T23:10:28.082Z,97.00
2023-03-14T23:12:33.827Z,97.20
2023-03-14T23:14:39.405Z,97.30
2023-03-14T23:16:47.369Z,97.30
2023-03-14T23:18:53.199Z,97.40
2023-03-14T23:21:12.712Z,97.40
2023-03-14T23:23:17.774Z,97.40
2023-03-14T23:25:26.009Z,97.50
2023-03-14T23:27:31.292Z,97.50
2023-03-14T23:29:36.404Z,97.60
2023-03-14T23:31:41.935Z,97.60
2023-03-14T23:33:47.891Z,97.40
2023-03-14T23:35:54.481Z,97.60
2023-03-14T23:37:59.342Z,97.40
2023-03-14T23:40:06.409Z,97.50
2023-03-14T23:42:14.401Z,97.40
2023-03-14T23:44:20.360Z,97.30
2023-03-14T23:46:25.326Z,97.30
2023-03-14T23:48:34.619Z,97.20
2023-03-14T23:50:39.517Z,97.20
2023-03-14T23:52:44.385Z,97.10
2023-03-14T23:54:50.244Z,97.10
2023-03-14T23:56:55.148Z,97.20
2023-03-14T23:59:03.191Z,97.20
